Purdue University Airport
KLAF : rendu visible

Aérodrome :











RETROUVEZ-NOUS SUR...

 
LOGIN :

S'inscrire | Disclaimer

   EN    FR    IT 

 









Légende :    VFR   VFR Marginal   IFR   IFR Intensif   IFR Très Intensif
Visi : 
Plafond : 
>= 8 km
>= 3000ft
5 à 8 km
1000 à 3000 ft
1500m à 5 km
500 à 1000 ft
800 à 1500m
200 à 500 ft
< 800m
< 200 ft
Symboles :   Orages  Brouillard  Fortes neiges  Fortes précipitations  Vent > 20 kt






- Altitude de l'aérodrome : 606 ft
- Code IATA : LAF


KLAF - Purdue University

DERNIER METAR :
  • 121754Z 32013KT 10SM CLR M08/M15 A3048 RMK AO2 SLP332 T10831150 11083 21128 58000

METARs EXPIRÉS :
  • 121654Z 31008KT 280V340 10SM CLR M09/M14 A3049 RMK AO2 SLP335 T10941144
  • 121554Z 31010KT 10SM CLR M10/M15 A3048 RMK AO2 SLP332 T11001150

TAF KLAF
Valide du 12 à 18h jusqu'au 13 à 18h UTC


121720Z 1218/1318 32011KT P6SM SKC
FM130000 VRB04KT P6SM FEW250
FM131500 18010G19KT P6SM BKN250



MET'MAP, la Météo Aéronautique d'un coup d'oeil ! - Copyright ORBIFLY Décembre 2007 - Disclaimer

ORBIFLY MET'MAP TEAM :

Programmation & Développement : Alexandra Zaïnal
Conception & Développement : Baudouin d'Aumeries
Co-Programmation & Développement : Marc-Olivier Méhu
Soutien technique & logistique : Manuel Goepfert

Contact : metmap@orbifly.com




SOURCES & CREDITS :

   NOAA       Earth
Advisory